sensor_id;sensor_type;location;lat;lon;timestamp;P1;durP1;ratioP1;P2;durP2;ratioP2
51491;SDS011;37569;50.548;8.778;2023-03-01T00:04:48;14.9;;;10.7;;
51491;SDS011;37569;50.548;8.778;2023-03-01T00:09:48;15.4;;;10.6;;
51491;SDS011;37569;50.548;8.778;2023-03-01T00:14:48;15.6;;;12.1;;
51491;SDS011;37569;50.548;8.778;2023-03-01T00:19:48;16;;;10.8;;
51491;SDS011;37569;50.548;8.778;2023-03-01T00:24:48;16.3;;;10.8;;
51491;SDS011;37569;50.548;8.778;2023-03-01T00:29:48;14.6;;;11;;
51491;SDS011;37569;50.548;8.778;2023-03-01T00:34:48;13.6;;;10.5;;
51491;SDS011;37569;50.548;8.778;2023-03-01T00:39:48;17.1;;;11.7;;
51491;SDS011;37569;50.548;8.778;2023-03-01T00:44:48;18.3;;;12.8;;
51491;SDS011;37569;50.548;8.778;2023-03-01T00:49:48;17.2;;;12.4;;
51491;SDS011;37569;50.548;8.778;2023-03-01T00:54:51;16.2;;;11.8;;
51491;SDS011;37569;50.548;8.778;2023-03-01T00:59:48;15.2;;;11.2;;
51491;SDS011;37569;50.548;8.778;2023-03-01T01:04:49;17.2;;;12;;
51491;SDS011;37569;50.548;8.778;2023-03-01T01:09:48;19.9;;;13;;
51491;SDS011;37569;50.548;8.778;2023-03-01T01:14:49;18.4;;;12.7;;
51491;SDS011;37569;50.548;8.778;2023-03-01T01:19:48;17.4;;;11.8;;
51491;SDS011;37569;50.548;8.778;2023-03-01T01:24:49;17.8;;;12.1;;
51491;SDS011;37569;50.548;8.778;2023-03-01T01:29:49;20.6;;;12.4;;
51491;SDS011;37569;50.548;8.778;2023-03-01T01:34:49;20.3;;;13.3;;
51491;SDS011;37569;50.548;8.778;2023-03-01T01:39:49;18.7;;;13.2;;
51491;SDS011;37569;50.548;8.778;2023-03-01T01:45:15;19.3;;;13.2;;
51491;SDS011;37569;50.548;8.778;2023-03-01T01:49:50;17.7;;;12.8;;
51491;SDS011;37569;50.548;8.778;2023-03-01T01:54:50;21.7;;;13.2;;
51491;SDS011;37569;50.548;8.778;2023-03-01T01:59:51;18.3;;;11.6;;
51491;SDS011;37569;50.548;8.778;2023-03-01T02:04:49;15.7;;;11.2;;
51491;SDS011;37569;50.548;8.778;2023-03-01T02:09:50;20.4;;;12;;
51491;SDS011;37569;50.548;8.778;2023-03-01T02:14:49;19.8;;;13.5;;
51491;SDS011;37569;50.548;8.778;2023-03-01T02:19:52;18.4;;;13.9;;
51491;SDS011;37569;50.548;8.778;2023-03-01T02:24:56;17.7;;;13.1;;
51491;SDS011;37569;50.548;8.778;2023-03-01T02:29:49;18.8;;;13.6;;
51491;SDS011;37569;50.548;8.778;2023-03-01T02:34:49;17;;;12.3;;
51491;SDS011;37569;50.548;8.778;2023-03-01T02:39:49;19.5;;;13.4;;
51491;SDS011;37569;50.548;8.778;2023-03-01T02:44:49;20.2;;;13;;
51491;SDS011;37569;50.548;8.778;2023-03-01T02:49:49;18.7;;;12.4;;
51491;SDS011;37569;50.548;8.778;2023-03-01T02:54:50;16.4;;;11.2;;
51491;SDS011;37569;50.548;8.778;2023-03-01T02:59:49;19.4;;;12.3;;
51491;SDS011;37569;50.548;8.778;2023-03-01T03:04:49;19;;;11.8;;
51491;SDS011;37569;50.548;8.778;2023-03-01T03:09:49;19.7;;;12.4;;
51491;SDS011;37569;50.548;8.778;2023-03-01T03:14:49;15.2;;;10.7;;
51491;SDS011;37569;50.548;8.778;2023-03-01T03:19:49;18.3;;;13.1;;
51491;SDS011;37569;50.548;8.778;2023-03-01T03:24:49;16.6;;;11.4;;
51491;SDS011;37569;50.548;8.778;2023-03-01T03:29:49;17.9;;;12.8;;
51491;SDS011;37569;50.548;8.778;2023-03-01T03:34:49;19.1;;;12.7;;
51491;SDS011;37569;50.548;8.778;2023-03-01T03:39:49;17.8;;;12.2;;
51491;SDS011;37569;50.548;8.778;2023-03-01T03:44:49;19.1;;;12.5;;
51491;SDS011;37569;50.548;8.778;2023-03-01T03:49:49;16.3;;;11.2;;
51491;SDS011;37569;50.548;8.778;2023-03-01T03:54:49;17.2;;;11.3;;
51491;SDS011;37569;50.548;8.778;2023-03-01T03:59:49;17.8;;;12;;
51491;SDS011;37569;50.548;8.778;2023-03-01T04:04:49;18.2;;;12.1;;
51491;SDS011;37569;50.548;8.778;2023-03-01T04:09:49;16.6;;;11.2;;
51491;SDS011;37569;50.548;8.778;2023-03-01T04:14:49;17.5;;;10.8;;
51491;SDS011;37569;50.548;8.778;2023-03-01T04:19:49;18.5;;;11.3;;
51491;SDS011;37569;50.548;8.778;2023-03-01T04:24:49;20.6;;;11.8;;
51491;SDS011;37569;50.548;8.778;2023-03-01T04:29:49;17.9;;;11.3;;
51491;SDS011;37569;50.548;8.778;2023-03-01T04:34:49;18.9;;;12.5;;
51491;SDS011;37569;50.548;8.778;2023-03-01T04:39:49;19.9;;;12.5;;
51491;SDS011;37569;50.548;8.778;2023-03-01T04:44:49;20;;;12.9;;
51491;SDS011;37569;50.548;8.778;2023-03-01T04:49:49;19.4;;;12.6;;
51491;SDS011;37569;50.548;8.778;2023-03-01T04:54:49;21.1;;;13.3;;
51491;SDS011;37569;50.548;8.778;2023-03-01T04:59:49;20.5;;;14;;
51491;SDS011;37569;50.548;8.778;2023-03-01T05:04:49;18.7;;;12.8;;
51491;SDS011;37569;50.548;8.778;2023-03-01T05:09:49;21.9;;;13.4;;
51491;SDS011;37569;50.548;8.778;2023-03-01T05:14:49;19.9;;;12;;
51491;SDS011;37569;50.548;8.778;2023-03-01T05:19:49;19;;;11.9;;
51491;SDS011;37569;50.548;8.778;2023-03-01T05:24:49;20.2;;;13;;
51491;SDS011;37569;50.548;8.778;2023-03-01T05:29:49;19.8;;;13.2;;
51491;SDS011;37569;50.548;8.778;2023-03-01T05:34:49;20.5;;;13.2;;
51491;SDS011;37569;50.548;8.778;2023-03-01T05:39:49;17.5;;;11.1;;
51491;SDS011;37569;50.548;8.778;2023-03-01T05:44:49;19.5;;;13.3;;
51491;SDS011;37569;50.548;8.778;2023-03-01T05:49:49;20.5;;;13.4;;
51491;SDS011;37569;50.548;8.778;2023-03-01T05:54:49;19.8;;;12.8;;
51491;SDS011;37569;50.548;8.778;2023-03-01T05:59:48;21;;;12.8;;
51491;SDS011;37569;50.548;8.778;2023-03-01T06:04:48;20.7;;;13.7;;
51491;SDS011;37569;50.548;8.778;2023-03-01T06:09:48;21.4;;;13.6;;
51491;SDS011;37569;50.548;8.778;2023-03-01T06:14:48;22.3;;;12.2;;
51491;SDS011;37569;50.548;8.778;2023-03-01T06:19:48;19.2;;;11.7;;
51491;SDS011;37569;50.548;8.778;2023-03-01T06:24:48;20.1;;;13;;
51491;SDS011;37569;50.548;8.778;2023-03-01T06:29:48;17.6;;;11.6;;
51491;SDS011;37569;50.548;8.778;2023-03-01T06:34:49;19.6;;;12.1;;
51491;SDS011;37569;50.548;8.778;2023-03-01T06:39:48;19.6;;;11.1;;
51491;SDS011;37569;50.548;8.778;2023-03-01T06:44:48;19.3;;;12.7;;
51491;SDS011;37569;50.548;8.778;2023-03-01T06:49:48;19.2;;;11.6;;
51491;SDS011;37569;50.548;8.778;2023-03-01T06:54:48;16.5;;;11;;
51491;SDS011;37569;50.548;8.778;2023-03-01T06:59:48;18.4;;;13.2;;
51491;SDS011;37569;50.548;8.778;2023-03-01T07:04:48;17.7;;;12.1;;
51491;SDS011;37569;50.548;8.778;2023-03-01T07:09:49;19.2;;;12.8;;
51491;SDS011;37569;50.548;8.778;2023-03-01T07:14:48;19.8;;;13.4;;
51491;SDS011;37569;50.548;8.778;2023-03-01T07:19:48;15.5;;;10.4;;
51491;SDS011;37569;50.548;8.778;2023-03-01T07:24:48;18.2;;;11.9;;
51491;SDS011;37569;50.548;8.778;2023-03-01T07:29:49;17.3;;;11.6;;
51491;SDS011;37569;50.548;8.778;2023-03-01T07:34:49;16.9;;;11.8;;
51491;SDS011;37569;50.548;8.778;2023-03-01T07:39:49;19.9;;;13.8;;
51491;SDS011;37569;50.548;8.778;2023-03-01T07:44:49;16.9;;;11.6;;
51491;SDS011;37569;50.548;8.778;2023-03-01T07:49:49;18.6;;;13.4;;
51491;SDS011;37569;50.548;8.778;2023-03-01T07:54:49;18.5;;;13.4;;
51491;SDS011;37569;50.548;8.778;2023-03-01T07:59:49;19.4;;;12.3;;
51491;SDS011;37569;50.548;8.778;2023-03-01T08:04:49;17.5;;;12.4;;
51491;SDS011;37569;50.548;8.778;2023-03-01T08:09:49;19.3;;;12.1;;
51491;SDS011;37569;50.548;8.778;2023-03-01T08:14:49;18;;;12.1;;
51491;SDS011;37569;50.548;8.778;2023-03-01T08:19:49;16.2;;;12;;
51491;SDS011;37569;50.548;8.778;2023-03-01T08:24:50;16.3;;;11.5;;
51491;SDS011;37569;50.548;8.778;2023-03-01T08:29:50;16.7;;;11.3;;
51491;SDS011;37569;50.548;8.778;2023-03-01T08:34:50;14;;;9.6;;
51491;SDS011;37569;50.548;8.778;2023-03-01T08:39:50;15.9;;;11.4;;
51491;SDS011;37569;50.548;8.778;2023-03-01T08:44:50;17.2;;;11.9;;
51491;SDS011;37569;50.548;8.778;2023-03-01T08:49:50;16.1;;;9.6;;
51491;SDS011;37569;50.548;8.778;2023-03-01T08:54:50;15;;;11.1;;
51491;SDS011;37569;50.548;8.778;2023-03-01T08:59:50;17.8;;;10;;
51491;SDS011;37569;50.548;8.778;2023-03-01T09:04:51;16;;;10.6;;
51491;SDS011;37569;50.548;8.778;2023-03-01T09:09:51;15.5;;;9.8;;
51491;SDS011;37569;50.548;8.778;2023-03-01T09:14:51;15.8;;;11;;
51491;SDS011;37569;50.548;8.778;2023-03-01T09:19:51;15.7;;;11.1;;
51491;SDS011;37569;50.548;8.778;2023-03-01T09:24:51;13.6;;;9.6;;
51491;SDS011;37569;50.548;8.778;2023-03-01T09:29:51;15.7;;;10.4;;
51491;SDS011;37569;50.548;8.778;2023-03-01T09:34:51;14;;;10.3;;
51491;SDS011;37569;50.548;8.778;2023-03-01T09:39:52;15;;;10.4;;
51491;SDS011;37569;50.548;8.778;2023-03-01T09:44:53;15.9;;;11.1;;
51491;SDS011;37569;50.548;8.778;2023-03-01T09:49:54;17.5;;;10.7;;
51491;SDS011;37569;50.548;8.778;2023-03-01T09:54:53;15.3;;;10.5;;
51491;SDS011;37569;50.548;8.778;2023-03-01T09:59:59;12.7;;;8.6;;
51491;SDS011;37569;50.548;8.778;2023-03-01T10:04:53;12.7;;;9.7;;
51491;SDS011;37569;50.548;8.778;2023-03-01T10:09:53;12.9;;;9.3;;
51491;SDS011;37569;50.548;8.778;2023-03-01T10:14:55;12;;;8.2;;
51491;SDS011;37569;50.548;8.778;2023-03-01T10:19:53;13.8;;;9.9;;
51491;SDS011;37569;50.548;8.778;2023-03-01T10:24:54;13.9;;;10.1;;
51491;SDS011;37569;50.548;8.778;2023-03-01T10:29:55;12.9;;;9.3;;
51491;SDS011;37569;50.548;8.778;2023-03-01T10:34:54;12.3;;;9;;
51491;SDS011;37569;50.548;8.778;2023-03-01T10:39:55;11.8;;;8;;
51491;SDS011;37569;50.548;8.778;2023-03-01T10:44:54;12.9;;;9.6;;
51491;SDS011;37569;50.548;8.778;2023-03-01T10:49:56;13.3;;;8.7;;
51491;SDS011;37569;50.548;8.778;2023-03-01T10:54:55;12.4;;;9.5;;
51491;SDS011;37569;50.548;8.778;2023-03-01T11:00:00;11.6;;;8.5;;
51491;SDS011;37569;50.548;8.778;2023-03-01T11:04:59;14.5;;;9;;
51491;SDS011;37569;50.548;8.778;2023-03-01T11:09:55;10.8;;;9;;
51491;SDS011;37569;50.548;8.778;2023-03-01T11:14:55;11.2;;;8.3;;
51491;SDS011;37569;50.548;8.778;2023-03-01T11:19:59;12.3;;;8.9;;
51491;SDS011;37569;50.548;8.778;2023-03-01T11:24:56;10.6;;;8.2;;
51491;SDS011;37569;50.548;8.778;2023-03-01T11:29:57;11.8;;;8.1;;
51491;SDS011;37569;50.548;8.778;2023-03-01T11:34:57;10.8;;;9;;
51491;SDS011;37569;50.548;8.778;2023-03-01T11:39:59;11.1;;;8.4;;
51491;SDS011;37569;50.548;8.778;2023-03-01T11:44:58;13.1;;;9;;
51491;SDS011;37569;50.548;8.778;2023-03-01T11:50:02;10.2;;;8.2;;
51491;SDS011;37569;50.548;8.778;2023-03-01T11:55:01;11.5;;;8.4;;
51491;SDS011;37569;50.548;8.778;2023-03-01T12:00:00;12;;;8.3;;
51491;SDS011;37569;50.548;8.778;2023-03-01T12:05:02;11.1;;;8.3;;
51491;SDS011;37569;50.548;8.778;2023-03-01T12:10:03;11.3;;;8.2;;
51491;SDS011;37569;50.548;8.778;2023-03-01T12:15:02;13.5;;;8.8;;
51491;SDS011;37569;50.548;8.778;2023-03-01T12:20:05;10.7;;;8.5;;
51491;SDS011;37569;50.548;8.778;2023-03-01T12:25:03;10.8;;;9;;
51491;SDS011;37569;50.548;8.778;2023-03-01T12:30:00;11.6;;;8.5;;
51491;SDS011;37569;50.548;8.778;2023-03-01T12:35:03;12;;;8.1;;
51491;SDS011;37569;50.548;8.778;2023-03-01T12:40:03;10.3;;;8.2;;
51491;SDS011;37569;50.548;8.778;2023-03-01T12:45:04;9.4;;;7.3;;
51491;SDS011;37569;50.548;8.778;2023-03-01T12:50:02;10.8;;;7.9;;
51491;SDS011;37569;50.548;8.778;2023-03-01T12:55:00;10.3;;;8.1;;
51491;SDS011;37569;50.548;8.778;2023-03-01T13:00:02;11.1;;;8.1;;
51491;SDS011;37569;50.548;8.778;2023-03-01T13:05:06;11.2;;;8.6;;
51491;SDS011;37569;50.548;8.778;2023-03-01T13:10:06;10.8;;;7.9;;
51491;SDS011;37569;50.548;8.778;2023-03-01T13:15:01;9.9;;;7.1;;
51491;SDS011;37569;50.548;8.778;2023-03-01T13:20:02;11;;;8;;
51491;SDS011;37569;50.548;8.778;2023-03-01T13:25:10;13.7;;;9.4;;
51491;SDS011;37569;50.548;8.778;2023-03-01T13:30:02;10.2;;;8.7;;
51491;SDS011;37569;50.548;8.778;2023-03-01T13:35:03;10.8;;;8.8;;
51491;SDS011;37569;50.548;8.778;2023-03-01T13:40:05;10.9;;;8.6;;
51491;SDS011;37569;50.548;8.778;2023-03-01T13:45:04;12.8;;;8.2;;
51491;SDS011;37569;50.548;8.778;2023-03-01T13:50:04;10.5;;;8.3;;
51491;SDS011;37569;50.548;8.778;2023-03-01T13:55:05;11.9;;;7.4;;
51491;SDS011;37569;50.548;8.778;2023-03-01T14:00:05;11.9;;;8.7;;
51491;SDS011;37569;50.548;8.778;2023-03-01T14:05:05;10.2;;;8;;
51491;SDS011;37569;50.548;8.778;2023-03-01T14:10:05;12.4;;;9.4;;
51491;SDS011;37569;50.548;8.778;2023-03-01T14:15:06;12.2;;;9.9;;
51491;SDS011;37569;50.548;8.778;2023-03-01T14:20:09;12.2;;;8.9;;
51491;SDS011;37569;50.548;8.778;2023-03-01T14:25:06;11.6;;;8.3;;
51491;SDS011;37569;50.548;8.778;2023-03-01T14:30:10;13.1;;;8.2;;
51491;SDS011;37569;50.548;8.778;2023-03-01T14:35:18;9.8;;;8.1;;
51491;SDS011;37569;50.548;8.778;2023-03-01T14:40:20;11.1;;;7.9;;
51491;SDS011;37569;50.548;8.778;2023-03-01T14:45:06;9.5;;;6.6;;
51491;SDS011;37569;50.548;8.778;2023-03-01T14:50:08;7.6;;;5.7;;
51491;SDS011;37569;50.548;8.778;2023-03-01T14:55:15;11.2;;;7.1;;
51491;SDS011;37569;50.548;8.778;2023-03-01T15:00:08;10.7;;;6.8;;
51491;SDS011;37569;50.548;8.778;2023-03-01T15:05:07;9.7;;;7.1;;
51491;SDS011;37569;50.548;8.778;2023-03-01T15:10:14;10;;;7;;
51491;SDS011;37569;50.548;8.778;2023-03-01T15:15:40;8.5;;;7.1;;
51491;SDS011;37569;50.548;8.778;2023-03-01T15:20:15;13;;;8.5;;
51491;SDS011;37569;50.548;8.778;2023-03-01T15:25:13;18.5;;;12.1;;
51491;SDS011;37569;50.548;8.778;2023-03-01T15:30:13;9.7;;;7.4;;
51491;SDS011;37569;50.548;8.778;2023-03-01T15:35:41;8.1;;;5.6;;
51491;SDS011;37569;50.548;8.778;2023-03-01T15:40:18;9.4;;;6.7;;
51491;SDS011;37569;50.548;8.778;2023-03-01T15:45:10;8.4;;;6.9;;
51491;SDS011;37569;50.548;8.778;2023-03-01T15:50:14;9.2;;;7.3;;
51491;SDS011;37569;50.548;8.778;2023-03-01T15:55:14;10.7;;;7.7;;
51491;SDS011;37569;50.548;8.778;2023-03-01T16:00:11;10.9;;;7.4;;
51491;SDS011;37569;50.548;8.778;2023-03-01T16:05:15;9.2;;;7.1;;
51491;SDS011;37569;50.548;8.778;2023-03-01T16:10:11;10.4;;;7.6;;
51491;SDS011;37569;50.548;8.778;2023-03-01T16:15:13;9.9;;;7;;
51491;SDS011;37569;50.548;8.778;2023-03-01T16:20:11;10.3;;;7.3;;
51491;SDS011;37569;50.548;8.778;2023-03-01T16:25:12;8.3;;;6.3;;
51491;SDS011;37569;50.548;8.778;2023-03-01T16:30:12;9.8;;;7;;
51491;SDS011;37569;50.548;8.778;2023-03-01T16:35:13;11.5;;;7.4;;
51491;SDS011;37569;50.548;8.778;2023-03-01T16:40:16;11.3;;;8.5;;
51491;SDS011;37569;50.548;8.778;2023-03-01T16:45:12;12.1;;;8.6;;
51491;SDS011;37569;50.548;8.778;2023-03-01T16:50:12;13.8;;;9.6;;
51491;SDS011;37569;50.548;8.778;2023-03-01T16:55:13;10.3;;;8.3;;
51491;SDS011;37569;50.548;8.778;2023-03-01T17:00:13;11.9;;;7.7;;
51491;SDS011;37569;50.548;8.778;2023-03-01T17:05:13;11.2;;;8.6;;
51491;SDS011;37569;50.548;8.778;2023-03-01T17:10:13;10.1;;;6.8;;
51491;SDS011;37569;50.548;8.778;2023-03-01T17:15:13;10.2;;;7.3;;
51491;SDS011;37569;50.548;8.778;2023-03-01T17:20:14;9.8;;;7.7;;
51491;SDS011;37569;50.548;8.778;2023-03-01T17:25:14;18;;;12.4;;
51491;SDS011;37569;50.548;8.778;2023-03-01T17:30:14;16.4;;;11.3;;
51491;SDS011;37569;50.548;8.778;2023-03-01T17:35:14;12.2;;;8;;
51491;SDS011;37569;50.548;8.778;2023-03-01T17:40:15;23.5;;;14.4;;
51491;SDS011;37569;50.548;8.778;2023-03-01T17:45:15;16;;;11.1;;
51491;SDS011;37569;50.548;8.778;2023-03-01T17:50:15;15.7;;;10.6;;
51491;SDS011;37569;50.548;8.778;2023-03-01T17:55:15;14.2;;;10;;
51491;SDS011;37569;50.548;8.778;2023-03-01T18:00:16;18.5;;;12.4;;
51491;SDS011;37569;50.548;8.778;2023-03-01T18:05:16;12.1;;;8.6;;
51491;SDS011;37569;50.548;8.778;2023-03-01T18:10:16;15.3;;;9.7;;
51491;SDS011;37569;50.548;8.778;2023-03-01T18:15:16;11.6;;;8;;
51491;SDS011;37569;50.548;8.778;2023-03-01T18:20:16;14.8;;;10;;
51491;SDS011;37569;50.548;8.778;2023-03-01T18:25:16;13.4;;;8.5;;
51491;SDS011;37569;50.548;8.778;2023-03-01T18:30:16;11.6;;;8.6;;
51491;SDS011;37569;50.548;8.778;2023-03-01T18:35:17;11.2;;;7.4;;
51491;SDS011;37569;50.548;8.778;2023-03-01T18:40:17;9.9;;;7.5;;
51491;SDS011;37569;50.548;8.778;2023-03-01T18:45:17;11.6;;;8.2;;
51491;SDS011;37569;50.548;8.778;2023-03-01T18:50:17;13.5;;;8.9;;
51491;SDS011;37569;50.548;8.778;2023-03-01T18:55:17;16;;;8.2;;
51491;SDS011;37569;50.548;8.778;2023-03-01T19:00:18;10.2;;;8.4;;
51491;SDS011;37569;50.548;8.778;2023-03-01T19:05:18;11.7;;;8.7;;
51491;SDS011;37569;50.548;8.778;2023-03-01T19:10:18;11.5;;;8;;
51491;SDS011;37569;50.548;8.778;2023-03-01T19:15:18;14.2;;;8.5;;
51491;SDS011;37569;50.548;8.778;2023-03-01T19:20:18;16.7;;;8.6;;
51491;SDS011;37569;50.548;8.778;2023-03-01T19:25:18;11.2;;;8.1;;
51491;SDS011;37569;50.548;8.778;2023-03-01T19:30:18;12.3;;;8.4;;
51491;SDS011;37569;50.548;8.778;2023-03-01T19:35:18;14.3;;;8.5;;
51491;SDS011;37569;50.548;8.778;2023-03-01T19:40:19;13.8;;;10;;
51491;SDS011;37569;50.548;8.778;2023-03-01T19:45:19;14.5;;;9.7;;
51491;SDS011;37569;50.548;8.778;2023-03-01T19:50:19;11;;;7.9;;
51491;SDS011;37569;50.548;8.778;2023-03-01T19:55:19;15.3;;;10.6;;
51491;SDS011;37569;50.548;8.778;2023-03-01T20:00:19;13.4;;;8.7;;
51491;SDS011;37569;50.548;8.778;2023-03-01T20:05:19;14.5;;;8.9;;
51491;SDS011;37569;50.548;8.778;2023-03-01T20:10:20;13.2;;;8.7;;
51491;SDS011;37569;50.548;8.778;2023-03-01T20:15:20;12.1;;;7.9;;
51491;SDS011;37569;50.548;8.778;2023-03-01T20:20:20;10.9;;;7.9;;
51491;SDS011;37569;50.548;8.778;2023-03-01T20:25:20;13.3;;;9.3;;
51491;SDS011;37569;50.548;8.778;2023-03-01T20:30:20;11.9;;;8.9;;
51491;SDS011;37569;50.548;8.778;2023-03-01T20:35:20;12.9;;;9;;
51491;SDS011;37569;50.548;8.778;2023-03-01T20:40:20;21.1;;;12.9;;
51491;SDS011;37569;50.548;8.778;2023-03-01T20:45:21;13.8;;;9;;
51491;SDS011;37569;50.548;8.778;2023-03-01T20:50:21;19.8;;;12.5;;
51491;SDS011;37569;50.548;8.778;2023-03-01T20:55:21;13.5;;;8.4;;
51491;SDS011;37569;50.548;8.778;2023-03-01T21:00:21;13.1;;;9;;
51491;SDS011;37569;50.548;8.778;2023-03-01T21:05:21;14;;;9.6;;
51491;SDS011;37569;50.548;8.778;2023-03-01T21:10:21;13.1;;;9.5;;
51491;SDS011;37569;50.548;8.778;2023-03-01T21:15:21;14.3;;;9.6;;
51491;SDS011;37569;50.548;8.778;2023-03-01T21:20:22;16.2;;;9.9;;
51491;SDS011;37569;50.548;8.778;2023-03-01T21:25:22;23;;;12.1;;
51491;SDS011;37569;50.548;8.778;2023-03-01T21:30:22;13.7;;;9;;
51491;SDS011;37569;50.548;8.778;2023-03-01T21:35:22;28.3;;;13.5;;
51491;SDS011;37569;50.548;8.778;2023-03-01T21:40:22;19.2;;;11;;
51491;SDS011;37569;50.548;8.778;2023-03-01T21:45:22;20.4;;;11.3;;
51491;SDS011;37569;50.548;8.778;2023-03-01T21:50:22;16.2;;;10.1;;
51491;SDS011;37569;50.548;8.778;2023-03-01T21:55:22;15.7;;;10.8;;
51491;SDS011;37569;50.548;8.778;2023-03-01T22:00:22;21.1;;;12.1;;
51491;SDS011;37569;50.548;8.778;2023-03-01T22:05:22;40.7;;;17.5;;
51491;SDS011;37569;50.548;8.778;2023-03-01T22:10:23;19.2;;;11.7;;
51491;SDS011;37569;50.548;8.778;2023-03-01T22:15:23;19.1;;;11.5;;
51491;SDS011;37569;50.548;8.778;2023-03-01T22:20:23;36.6;;;16.6;;
51491;SDS011;37569;50.548;8.778;2023-03-01T22:25:23;22.3;;;12.2;;
51491;SDS011;37569;50.548;8.778;2023-03-01T22:30:23;15.9;;;10.8;;
51491;SDS011;37569;50.548;8.778;2023-03-01T22:35:23;18.1;;;11.1;;
51491;SDS011;37569;50.548;8.778;2023-03-01T22:40:23;20.1;;;11.5;;
51491;SDS011;37569;50.548;8.778;2023-03-01T22:45:23;16;;;9.7;;
51491;SDS011;37569;50.548;8.778;2023-03-01T22:50:23;17.3;;;9.9;;
51491;SDS011;37569;50.548;8.778;2023-03-01T22:55:25;15.8;;;9.3;;
51491;SDS011;37569;50.548;8.778;2023-03-01T23:00:24;18.6;;;10.5;;
51491;SDS011;37569;50.548;8.778;2023-03-01T23:05:24;15.9;;;10.1;;
51491;SDS011;37569;50.548;8.778;2023-03-01T23:10:24;15.6;;;8.8;;
51491;SDS011;37569;50.548;8.778;2023-03-01T23:15:24;14.5;;;9.2;;
51491;SDS011;37569;50.548;8.778;2023-03-01T23:20:24;14.4;;;9.3;;
51491;SDS011;37569;50.548;8.778;2023-03-01T23:25:24;15.4;;;9.3;;
51491;SDS011;37569;50.548;8.778;2023-03-01T23:30:24;14.5;;;9.4;;
51491;SDS011;37569;50.548;8.778;2023-03-01T23:35:24;16.9;;;10.6;;
51491;SDS011;37569;50.548;8.778;2023-03-01T23:40:24;19.7;;;11.3;;
51491;SDS011;37569;50.548;8.778;2023-03-01T23:45:24;14.1;;;9;;
51491;SDS011;37569;50.548;8.778;2023-03-01T23:50:25;11.7;;;8.2;;
51491;SDS011;37569;50.548;8.778;2023-03-01T23:55:25;12.5;;;8.1;;
